createdAt,value
2018-12-14T00:00:29.254Z,30.66
2018-12-14T00:01:38.818Z,30.46
2018-12-14T00:02:48.092Z,30.37
2018-12-14T00:03:57.598Z,30.37
2018-12-14T00:05:06.616Z,30.46
2018-12-14T00:06:16.557Z,30.56
2018-12-14T00:07:26.134Z,30.37
2018-12-14T00:08:35.752Z,30.46
2018-12-14T00:09:45.291Z,30.46
2018-12-14T00:10:54.465Z,30.08
2018-12-14T00:12:05.960Z,29.98
2018-12-14T00:13:15.194Z,30.18
2018-12-14T00:14:24.519Z,30.18
2018-12-14T00:15:33.879Z,30.37
2018-12-14T00:16:43.189Z,30.18
2018-12-14T00:17:52.635Z,30.18
2018-12-14T00:19:02.160Z,29.98
2018-12-14T00:20:11.262Z,30.08
2018-12-14T00:21:20.435Z,29.98
2018-12-14T00:22:29.421Z,29.98
2018-12-14T00:23:38.704Z,30.37
2018-12-14T00:24:48.119Z,30.08
2018-12-14T00:25:57.451Z,30.18
2018-12-14T00:27:07.307Z,30.18
2018-12-14T00:28:16.768Z,30.27
2018-12-14T00:29:26.396Z,30.18
2018-12-14T00:30:35.932Z,30.18
2018-12-14T00:31:45.390Z,30.37
2018-12-14T00:32:54.782Z,30.27
2018-12-14T00:34:04.270Z,30.37
2018-12-14T00:35:13.947Z,30.27
2018-12-14T00:36:23.186Z,29.98
2018-12-14T00:37:32.893Z,30.18
2018-12-14T00:38:42.665Z,30.18
2018-12-14T00:39:52.449Z,29.89
2018-12-14T00:41:01.577Z,29.98
2018-12-14T00:42:11.778Z,29.89
2018-12-14T00:43:21.903Z,29.89
2018-12-14T00:44:31.052Z,29.97
2018-12-14T00:45:40.004Z,29.89
2018-12-14T00:46:49.107Z,29.89
2018-12-14T00:47:58.790Z,29.89
2018-12-14T00:49:08.202Z,29.89
2018-12-14T00:50:17.736Z,29.87
2018-12-14T00:51:26.647Z,29.87
2018-12-14T00:52:35.911Z,29.89
2018-12-14T00:53:45.387Z,29.87
2018-12-14T00:54:54.517Z,29.97
2018-12-14T00:56:04.651Z,29.98
2018-12-14T00:57:13.733Z,29.87
2018-12-14T00:58:23.476Z,30.26
2018-12-14T00:59:32.991Z,30.07
2018-12-14T01:00:41.975Z,29.49
2018-12-14T01:01:51.094Z,29.39
2018-12-14T01:03:00.818Z,29.39
2018-12-14T01:04:10.550Z,29.49
2018-12-14T01:05:19.666Z,29.58
2018-12-14T01:06:28.976Z,29.77
2018-12-14T01:07:39.054Z,29.68
2018-12-14T01:08:48.269Z,29.58
2018-12-14T01:09:57.108Z,29.58
2018-12-14T01:11:06.521Z,29.68
2018-12-14T01:12:15.800Z,29.68
2018-12-14T01:13:25.607Z,29.77
2018-12-14T01:14:34.897Z,29.77
2018-12-14T01:15:44.024Z,29.87
2018-12-14T01:16:53.658Z,29.49
2018-12-14T01:18:02.920Z,29.49
2018-12-14T01:19:12.282Z,29.49
2018-12-14T01:20:21.687Z,29.39
2018-12-14T01:21:31.603Z,29.58
2018-12-14T01:22:40.746Z,29.77
2018-12-14T01:23:50.528Z,29.49
2018-12-14T01:25:00.367Z,29.58
2018-12-14T01:26:09.487Z,29.87
2018-12-14T01:27:18.803Z,29.87
2018-12-14T01:28:28.450Z,29.2
2018-12-14T01:29:37.602Z,29.2
2018-12-14T01:30:46.584Z,29.29
2018-12-14T01:31:55.941Z,29.49
2018-12-14T01:33:05.856Z,29.29
2018-12-14T01:34:15.735Z,29.49
2018-12-14T01:35:24.601Z,29.49
2018-12-14T01:36:34.437Z,29.49
2018-12-14T01:37:43.825Z,29.49
2018-12-14T01:38:53.766Z,29.2
2018-12-14T01:40:03.173Z,29.2
2018-12-14T01:41:12.463Z,29.29
2018-12-14T01:42:21.583Z,29.29
2018-12-14T01:43:31.175Z,29.2
2018-12-14T01:44:40.703Z,29.1
2018-12-14T01:45:50.490Z,29.1
2018-12-14T01:47:00.070Z,29.1
2018-12-14T01:48:09.604Z,29.29
2018-12-14T01:49:18.974Z,29.29
2018-12-14T01:50:28.398Z,29.2
2018-12-14T01:51:37.922Z,29.2
2018-12-14T01:52:48.171Z,29.2
2018-12-14T01:53:57.662Z,29.2
2018-12-14T01:55:07.555Z,29.2
2018-12-14T01:56:16.770Z,29.1
2018-12-14T01:57:27.015Z,29.2
2018-12-14T01:58:36.542Z,29.18
2018-12-14T01:59:45.970Z,29.2
2018-12-14T02:00:55.892Z,29.29
2018-12-14T02:02:05.386Z,29
2018-12-14T02:03:14.961Z,29.38
2018-12-14T02:04:24.495Z,29.47
2018-12-14T02:05:33.949Z,29.47
2018-12-14T02:06:43.688Z,29.66
2018-12-14T02:07:52.988Z,28.89
2018-12-14T02:09:02.520Z,28.89
2018-12-14T02:10:12.568Z,28.8
2018-12-14T02:11:22.482Z,28.89
2018-12-14T02:12:31.601Z,28.89
2018-12-14T02:13:41.572Z,28.89
2018-12-14T02:14:51.041Z,28.89
2018-12-14T02:16:00.539Z,28.99
2018-12-14T02:17:10.305Z,28.89
2018-12-14T02:18:19.938Z,29.08
2018-12-14T02:19:29.055Z,28.99
2018-12-14T02:20:38.489Z,28.99
2018-12-14T02:22:13.643Z,28.99
2018-12-14T02:23:23.235Z,28.99
2018-12-14T02:24:33.205Z,29.08
2018-12-14T02:25:43.148Z,28.99
2018-12-14T02:26:52.601Z,28.99
2018-12-14T02:28:02.087Z,28.99
2018-12-14T02:29:11.459Z,28.89
2018-12-14T02:30:20.538Z,28.99
2018-12-14T02:31:30.754Z,29.08
2018-12-14T02:32:40.158Z,28.89
2018-12-14T02:33:49.688Z,28.99
2018-12-14T02:35:00.021Z,28.89
2018-12-14T02:36:09.410Z,28.89
2018-12-14T02:37:18.826Z,28.99
2018-12-14T02:38:28.420Z,28.89
2018-12-14T02:39:37.735Z,28.89
2018-12-14T02:40:47.170Z,28.99
2018-12-14T02:41:56.905Z,28.7
2018-12-14T02:43:06.379Z,28.7
2018-12-14T02:44:15.512Z,28.8
2018-12-14T02:45:25.139Z,28.8
2018-12-14T02:46:34.601Z,28.89
2018-12-14T02:47:44.057Z,28.89
2018-12-14T02:48:53.579Z,28.8
2018-12-14T02:50:02.702Z,28.8
2018-12-14T02:51:12.141Z,28.51
2018-12-14T02:52:22.068Z,28.51
2018-12-14T02:53:31.538Z,28.51
2018-12-14T02:54:40.560Z,28.61
2018-12-14T02:55:50.043Z,28.61
2018-12-14T02:57:00.069Z,28.7
2018-12-14T02:58:09.402Z,28.7
2018-12-14T02:59:18.612Z,28.61
2018-12-14T03:00:27.752Z,28.7
2018-12-14T03:01:36.901Z,28.7
2018-12-14T03:02:47.018Z,28.7
2018-12-14T03:03:56.854Z,28.61
2018-12-14T03:05:06.828Z,28.51
2018-12-14T03:06:16.430Z,28.51
2018-12-14T03:07:25.654Z,28.61
2018-12-14T03:08:35.003Z,28.51
2018-12-14T03:09:44.554Z,28.41
2018-12-14T03:10:53.453Z,28.61
2018-12-14T03:12:02.779Z,28.61
2018-12-14T03:13:12.484Z,28.61
2018-12-14T03:14:21.813Z,28.51
2018-12-14T03:15:31.655Z,28.61
2018-12-14T03:16:41.283Z,28.61
2018-12-14T03:17:50.820Z,28.61
2018-12-14T03:19:00.442Z,28.7
2018-12-14T03:20:10.176Z,28.51
2018-12-14T03:21:19.496Z,28.51
2018-12-14T03:22:29.110Z,28.51
2018-12-14T03:23:38.819Z,28.41
2018-12-14T03:24:48.759Z,28.41
2018-12-14T03:25:58.539Z,28.41
2018-12-14T03:27:08.020Z,28.31
2018-12-14T03:28:17.181Z,28.31
2018-12-14T03:29:26.308Z,28.22
2018-12-14T03:30:35.704Z,28.41
2018-12-14T03:31:45.631Z,28.31
2018-12-14T03:32:55.767Z,28.31
2018-12-14T03:34:05.597Z,28.41
2018-12-14T03:35:14.759Z,28.31
2018-12-14T03:36:24.830Z,28.41
2018-12-14T03:37:34.156Z,28.31
2018-12-14T03:38:43.820Z,28.31
2018-12-14T03:39:52.933Z,28.22
2018-12-14T03:41:02.579Z,28.41
2018-12-14T03:42:12.076Z,28.31
2018-12-14T03:43:21.471Z,28.41
2018-12-14T03:44:30.574Z,28.11
2018-12-14T03:45:40.359Z,28.22
2018-12-14T03:46:49.533Z,28.22
2018-12-14T03:47:58.986Z,28.31
2018-12-14T03:49:09.086Z,28.51
2018-12-14T03:50:18.725Z,28.13
2018-12-14T03:51:28.599Z,28.13
2018-12-14T03:52:38.476Z,28.03
2018-12-14T03:53:47.853Z,28.03
2018-12-14T03:54:57.024Z,28.11
2018-12-14T03:56:06.710Z,27.72
2018-12-14T03:57:16.375Z,27.72
2018-12-14T03:58:25.939Z,27.62
2018-12-14T03:59:35.098Z,27.72
2018-12-14T04:00:44.955Z,27.72
2018-12-14T04:01:55.007Z,27.82
2018-12-14T04:03:04.735Z,27.82
2018-12-14T04:04:14.278Z,27.82
2018-12-14T04:05:23.947Z,27.82
2018-12-14T04:06:33.066Z,27.82
2018-12-14T04:07:41.873Z,27.82
2018-12-14T04:08:50.652Z,27.82
2018-12-14T04:10:00.114Z,27.92
2018-12-14T04:11:09.758Z,27.82
2018-12-14T04:12:18.976Z,27.72
2018-12-14T04:13:28.011Z,27.72
2018-12-14T04:14:37.707Z,27.72
2018-12-14T04:15:46.930Z,27.92
2018-12-14T04:16:56.335Z,27.72
2018-12-14T04:18:06.017Z,27.92
2018-12-14T04:19:14.996Z,27.72
2018-12-14T04:20:24.355Z,27.72
2018-12-14T04:21:34.001Z,27.72
2018-12-14T04:22:43.267Z,27.82
2018-12-14T04:23:53.502Z,27.82
2018-12-14T04:25:02.708Z,27.82
2018-12-14T04:26:12.681Z,27.92
2018-12-14T04:27:22.004Z,27.82
2018-12-14T04:28:31.740Z,28.02
2018-12-14T04:29:41.481Z,27.92
2018-12-14T04:30:50.636Z,27.72
2018-12-14T04:31:59.865Z,27.82
2018-12-14T04:33:09.528Z,27.82
2018-12-14T04:34:18.818Z,27.72
2018-12-14T04:35:28.757Z,27.72
2018-12-14T04:36:38.094Z,27.82
2018-12-14T04:37:48.032Z,27.82
2018-12-14T04:38:57.155Z,27.82
2018-12-14T04:40:06.331Z,27.82
2018-12-14T04:41:15.865Z,27.92
2018-12-14T04:42:25.613Z,27.82
2018-12-14T04:43:35.203Z,27.92
2018-12-14T04:44:44.599Z,27.62
2018-12-14T04:45:53.978Z,27.82
2018-12-14T04:47:03.488Z,27.82
2018-12-14T04:48:12.556Z,27.53
2018-12-14T04:49:22.167Z,27.53
2018-12-14T04:50:32.062Z,27.72
2018-12-14T04:51:41.190Z,27.62
2018-12-14T04:52:50.709Z,27.62
2018-12-14T04:54:00.352Z,27.62
2018-12-14T04:55:09.454Z,27.72
2018-12-14T04:56:18.994Z,27.53
2018-12-14T04:57:28.224Z,27.72
2018-12-14T04:58:37.633Z,27.82
2018-12-14T04:59:47.268Z,27.62
2018-12-14T05:00:56.864Z,27.62
2018-12-14T05:02:06.740Z,27.62
2018-12-14T05:03:16.133Z,27.53
2018-12-14T05:04:24.993Z,27.44
2018-12-14T05:05:34.120Z,27.34
2018-12-14T05:06:43.886Z,27.44
2018-12-14T05:07:53.451Z,27.53
2018-12-14T05:09:02.950Z,27.44
2018-12-14T05:10:12.044Z,27.44
2018-12-14T05:11:21.385Z,27.53
2018-12-14T05:12:30.520Z,27.53
2018-12-14T05:13:40.211Z,27.53
2018-12-14T05:14:50.131Z,27.44
2018-12-14T05:15:59.760Z,27.44
2018-12-14T05:17:09.151Z,27.53
2018-12-14T05:18:18.290Z,27.62
2018-12-14T05:19:27.629Z,27.62
2018-12-14T05:20:36.736Z,27.62
2018-12-14T05:21:45.864Z,27.53
2018-12-14T05:22:55.675Z,27.82
2018-12-14T05:24:05.104Z,27.53
2018-12-14T05:25:14.832Z,27.44
2018-12-14T05:26:24.727Z,27.34
2018-12-14T05:27:33.977Z,27.34
2018-12-14T05:28:43.155Z,27.44
2018-12-14T05:29:52.519Z,27.44
2018-12-14T05:31:02.181Z,27.15
2018-12-14T05:32:11.593Z,27.34
2018-12-14T05:33:21.157Z,27.24
2018-12-14T05:34:30.736Z,27.34
2018-12-14T05:35:40.196Z,27.34
2018-12-14T05:36:49.720Z,27.34
2018-12-14T05:37:59.638Z,27.44
2018-12-14T05:39:09.551Z,27.34
2018-12-14T05:40:19.120Z,27.34
2018-12-14T05:41:28.280Z,27.24
2018-12-14T05:42:38.307Z,27.15
2018-12-14T05:43:48.145Z,27.34
2018-12-14T05:44:57.546Z,27.15
2018-12-14T05:46:07.280Z,27.15
2018-12-14T05:47:16.601Z,27.15
2018-12-14T05:48:25.682Z,27.34
2018-12-14T05:49:35.101Z,27.34
2018-12-14T05:50:44.944Z,27.44
2018-12-14T05:51:54.339Z,27.24
2018-12-14T05:53:04.602Z,27.34
2018-12-14T05:54:14.755Z,27.34
2018-12-14T05:55:23.828Z,27.34
2018-12-14T05:56:33.277Z,27.34
2018-12-14T05:57:42.080Z,27.34
2018-12-14T05:58:51.545Z,27.34
2018-12-14T06:00:00.927Z,27.24
2018-12-14T06:01:10.173Z,27.15
2018-12-14T06:02:19.493Z,27.15
2018-12-14T06:03:29.135Z,27.24
2018-12-14T06:04:38.277Z,27.15
2018-12-14T06:05:47.621Z,27.34
2018-12-14T06:06:57.230Z,27.05
2018-12-14T06:08:06.454Z,27.34
2018-12-14T06:09:17.367Z,27.05
2018-12-14T06:10:26.510Z,27.24
2018-12-14T06:11:35.496Z,27.15
2018-12-14T06:12:45.119Z,27.15
2018-12-14T06:13:54.678Z,27.34
2018-12-14T06:15:03.789Z,27.05
2018-12-14T06:16:13.863Z,26.95
2018-12-14T06:17:23.261Z,27.05
2018-12-14T06:18:32.992Z,27.05
2018-12-14T06:19:42.096Z,27.15
2018-12-14T06:20:51.547Z,26.86
2018-12-14T06:22:01.352Z,26.95
2018-12-14T06:23:11.025Z,26.76
2018-12-14T06:24:20.267Z,26.86
2018-12-14T06:25:29.610Z,26.95
2018-12-14T06:26:39.003Z,26.86
2018-12-14T06:27:48.316Z,27.24
2018-12-14T06:28:57.900Z,27.05
2018-12-14T06:30:07.377Z,27.05
2018-12-14T06:31:16.768Z,27.05
2018-12-14T06:32:26.122Z,26.76
2018-12-14T06:33:35.640Z,26.76
2018-12-14T06:34:44.960Z,26.76
2018-12-14T06:35:54.049Z,27.05
2018-12-14T06:37:03.699Z,27.05
2018-12-14T06:38:12.871Z,26.86
2018-12-14T06:39:22.134Z,27.15
2018-12-14T06:40:31.099Z,27.15
2018-12-14T06:41:40.645Z,26.95
2018-12-14T06:42:49.567Z,27.05
2018-12-14T06:43:59.155Z,26.95
2018-12-14T06:45:08.854Z,26.86
2018-12-14T06:46:18.146Z,26.57
2018-12-14T06:47:27.354Z,26.65
2018-12-14T06:48:36.715Z,26.57
2018-12-14T06:49:46.095Z,26.56
2018-12-14T06:50:55.204Z,26.56
2018-12-14T06:52:04.463Z,26.47
2018-12-14T06:53:13.598Z,26.47
2018-12-14T06:54:23.289Z,26.46
2018-12-14T06:55:32.677Z,26.46
2018-12-14T06:56:41.721Z,26.47
2018-12-14T06:57:52.001Z,26.56
2018-12-14T06:59:01.282Z,26.46
2018-12-14T07:00:10.402Z,26.46
2018-12-14T07:01:19.841Z,26.46
2018-12-14T07:02:29.231Z,26.56
2018-12-14T07:03:38.900Z,26.46
2018-12-14T07:04:48.230Z,26.36
2018-12-14T07:05:58.118Z,26.65
2018-12-14T07:07:07.292Z,26.46
2018-12-14T07:08:16.477Z,26.46
2018-12-14T07:09:25.598Z,26.56
2018-12-14T07:10:34.700Z,26.65
2018-12-14T07:11:44.323Z,26.36
2018-12-14T07:12:53.404Z,26.65
2018-12-14T07:14:03.617Z,26.28
2018-12-14T07:15:13.151Z,26.18
2018-12-14T07:16:22.468Z,26.47
2018-12-14T07:17:32.241Z,25.7
2018-12-14T07:18:41.934Z,25.99
2018-12-14T07:19:51.582Z,25.8
2018-12-14T07:21:01.304Z,25.7
2018-12-14T07:22:10.707Z,25.62
2018-12-14T07:23:20.194Z,25.33
2018-12-14T07:24:29.559Z,25.52
2018-12-14T07:25:38.548Z,25.23
2018-12-14T07:26:47.907Z,25.05
2018-12-14T07:27:57.918Z,25.05
2018-12-14T07:29:07.611Z,24.86
2018-12-14T07:30:17.591Z,24.67
2018-12-14T07:31:26.571Z,24.57
2018-12-14T07:32:38.030Z,24.57
2018-12-14T07:33:47.575Z,24.39
2018-12-14T07:34:56.922Z,24.49
2018-12-14T07:36:06.644Z,24.68
2018-12-14T07:37:16.296Z,24.58
2018-12-14T07:38:25.971Z,24.77
2018-12-14T07:39:35.558Z,24.68
2018-12-14T07:40:44.682Z,24.68
2018-12-14T07:41:53.804Z,24.49
2018-12-14T07:43:03.238Z,24.49
2018-12-14T07:44:13.464Z,24.77
2018-12-14T07:45:23.218Z,24.77
2018-12-14T07:46:32.849Z,24.77
2018-12-14T07:47:42.145Z,24.58
2018-12-14T07:48:51.642Z,24.68
2018-12-14T07:50:01.507Z,24.58
2018-12-14T07:51:11.169Z,24.49
2018-12-14T07:52:20.602Z,24.49
2018-12-14T07:53:30.512Z,24.29
2018-12-14T07:54:40.765Z,24.39
2018-12-14T07:55:50.453Z,24.49
2018-12-14T07:57:00.007Z,24.58
2018-12-14T07:58:09.175Z,24.79
2018-12-14T07:59:18.573Z,24.58
2018-12-14T08:00:27.949Z,24.58
2018-12-14T08:01:37.248Z,24.58
2018-12-14T08:02:46.514Z,24.68
2018-12-14T08:03:56.309Z,24.77
2018-12-14T08:05:05.945Z,24.87
2018-12-14T08:06:15.784Z,24.97
2018-12-14T08:07:25.317Z,24.97
2018-12-14T08:08:34.723Z,24.77
2018-12-14T08:09:44.282Z,24.97
2018-12-14T08:10:53.752Z,24.97
2018-12-14T08:12:03.118Z,25.07
2018-12-14T08:13:12.631Z,25.07
2018-12-14T08:14:22.341Z,24.97
2018-12-14T08:15:31.418Z,24.97
2018-12-14T08:16:40.323Z,25.07
2018-12-14T08:17:49.806Z,25.16
2018-12-14T08:18:59.231Z,25.35
2018-12-14T08:20:09.133Z,25.26
2018-12-14T08:21:24.357Z,25.35
2018-12-14T08:22:33.683Z,25.35
2018-12-14T08:23:43.338Z,25.26
2018-12-14T08:24:53.054Z,25.16
2018-12-14T08:26:02.484Z,25.16
2018-12-14T08:27:12.319Z,25.55
2018-12-14T08:28:21.951Z,25.35
2018-12-14T08:29:31.366Z,25.35
2018-12-14T08:30:40.639Z,25.35
2018-12-14T08:31:50.354Z,25.35
2018-12-14T08:33:00.378Z,25.45
2018-12-14T08:34:10.218Z,25.26
2018-12-14T08:35:19.549Z,25.64
2018-12-14T08:36:28.947Z,25.45
2018-12-14T08:37:37.880Z,25.64
2018-12-14T08:38:47.316Z,25.45
2018-12-14T08:39:56.957Z,25.45
2018-12-14T08:41:06.539Z,25.64
2018-12-14T08:42:15.708Z,25.64
2018-12-14T08:43:25.176Z,25.74
2018-12-14T08:44:35.483Z,25.63
2018-12-14T08:45:44.924Z,25.55
2018-12-14T08:46:53.984Z,25.84
2018-12-14T08:48:03.366Z,25.74
2018-12-14T08:49:12.782Z,25.82
2018-12-14T08:50:22.007Z,25.92
2018-12-14T08:51:31.435Z,26.11
2018-12-14T08:52:40.956Z,26.11
2018-12-14T08:53:50.353Z,26.11
2018-12-14T08:54:59.402Z,26.02
2018-12-14T08:56:09.007Z,26.21
2018-12-14T08:57:18.494Z,26.11
2018-12-14T08:58:28.202Z,25.92
2018-12-14T08:59:37.833Z,25.92
2018-12-14T09:00:47.773Z,25.92
2018-12-14T09:01:57.614Z,25.82
2018-12-14T09:03:06.453Z,25.82
2018-12-14T09:04:17.186Z,25.82
2018-12-14T09:05:26.650Z,25.82
2018-12-14T09:06:36.145Z,25.82
2018-12-14T09:07:45.855Z,25.82
2018-12-14T09:08:55.309Z,25.82
2018-12-14T09:10:04.963Z,25.82
2018-12-14T09:11:14.475Z,25.92
2018-12-14T09:12:23.882Z,25.82
2018-12-14T09:13:33.505Z,25.92
2018-12-14T09:14:42.852Z,25.82
2018-12-14T09:15:52.688Z,25.82
2018-12-14T09:17:01.812Z,25.92
2018-12-14T09:18:10.932Z,26.02
2018-12-14T09:19:19.804Z,26.11
2018-12-14T09:20:29.170Z,26.12
2018-12-14T09:21:38.539Z,26.11
2018-12-14T09:22:48.609Z,25.84
2018-12-14T09:23:58.078Z,25.93
2018-12-14T09:25:07.295Z,25.55
2018-12-14T09:26:17.434Z,25.74
2018-12-14T09:27:27.057Z,25.74
2018-12-14T09:28:36.493Z,25.45
2018-12-14T09:29:45.480Z,25.45
2018-12-14T09:30:54.950Z,25.55
2018-12-14T09:32:04.336Z,25.45
2018-12-14T09:33:14.003Z,25.55
2018-12-14T09:34:23.289Z,25.64
2018-12-14T09:35:32.990Z,25.66
2018-12-14T09:36:43.216Z,25.64
2018-12-14T09:37:52.632Z,25.64
2018-12-14T09:39:01.968Z,25.26
2018-12-14T09:40:11.189Z,25.56
2018-12-14T09:41:20.828Z,25.18
2018-12-14T09:42:30.113Z,25.64
2018-12-14T09:43:39.183Z,25.27
2018-12-14T09:44:48.948Z,25.66
2018-12-14T09:45:58.205Z,25.66
2018-12-14T09:47:07.692Z,25.46
2018-12-14T09:48:17.679Z,25.66
2018-12-14T09:49:27.722Z,25.56
2018-12-14T09:50:37.461Z,25.46
2018-12-14T09:51:46.842Z,25.45
2018-12-14T09:52:56.333Z,25.56
2018-12-14T09:54:05.445Z,25.56
2018-12-14T09:55:15.093Z,25.74
2018-12-14T09:56:24.452Z,25.64
2018-12-14T09:57:33.816Z,25.74
2018-12-14T09:58:43.514Z,25.84
2018-12-14T09:59:53.120Z,25.84
2018-12-14T10:01:02.604Z,25.84
2018-12-14T10:02:11.858Z,25.74
2018-12-14T10:03:21.497Z,25.84
2018-12-14T10:04:30.652Z,26.03
2018-12-14T10:05:40.232Z,26.12
2018-12-14T10:06:49.775Z,25.93
2018-12-14T10:07:59.411Z,25.93
2018-12-14T10:09:09.318Z,25.84
2018-12-14T10:10:18.743Z,25.84
2018-12-14T10:11:28.102Z,25.84
2018-12-14T10:12:37.540Z,25.84
2018-12-14T10:13:46.642Z,25.74
2018-12-14T10:14:55.763Z,25.84
2018-12-14T10:16:05.287Z,26.03
2018-12-14T10:17:14.626Z,26.12
2018-12-14T10:18:24.327Z,26.12
2018-12-14T10:19:33.756Z,26.22
2018-12-14T10:20:43.318Z,26.42
2018-12-14T10:21:53.196Z,26.42
2018-12-14T10:23:02.432Z,26.32
2018-12-14T10:24:12.291Z,26.32
2018-12-14T10:25:21.465Z,26.22
2018-12-14T10:26:31.367Z,26.22
2018-12-14T10:27:40.568Z,26.32
2018-12-14T10:28:49.725Z,26.32
2018-12-14T10:29:58.946Z,26.32
2018-12-14T10:31:08.033Z,26.32
2018-12-14T10:32:17.354Z,26.32
2018-12-14T10:33:26.841Z,26.42
2018-12-14T10:34:36.786Z,26.32
2018-12-14T10:35:46.184Z,26.42
2018-12-14T10:36:55.584Z,26.51
2018-12-14T10:38:05.081Z,26.51
2018-12-14T10:39:14.976Z,26.7
2018-12-14T10:40:24.404Z,26.7
2018-12-14T10:41:34.044Z,26.61
2018-12-14T10:42:43.104Z,26.7
2018-12-14T10:43:52.440Z,26.61
2018-12-14T10:45:01.955Z,26.8
2018-12-14T10:46:11.554Z,26.51
2018-12-14T10:47:21.207Z,26.42
2018-12-14T10:48:30.726Z,26.5
2018-12-14T10:49:40.344Z,26.4
2018-12-14T10:50:49.759Z,26.42
2018-12-14T10:51:58.612Z,26.59
2018-12-14T10:53:08.214Z,26.69
2018-12-14T10:54:17.903Z,26.7
2018-12-14T10:55:28.024Z,26.8
2018-12-14T10:56:36.834Z,26.61
2018-12-14T10:57:45.883Z,26.59
2018-12-14T10:58:55.208Z,26.4
2018-12-14T11:00:04.860Z,26.51
2018-12-14T11:01:16.980Z,26.7
2018-12-14T11:02:26.609Z,26.61
2018-12-14T11:03:35.734Z,26.42
2018-12-14T11:04:45.121Z,26.42
2018-12-14T11:05:54.726Z,26.32
2018-12-14T11:07:04.005Z,26.32
2018-12-14T11:08:12.879Z,26.32
2018-12-14T11:09:22.543Z,26.32
2018-12-14T11:10:31.887Z,26.12
2018-12-14T11:11:41.015Z,26.03
2018-12-14T11:12:51.299Z,26.03
2018-12-14T11:14:00.718Z,26.03
2018-12-14T11:15:16.881Z,25.95
2018-12-14T11:16:26.016Z,25.85
2018-12-14T11:17:35.374Z,25.85
2018-12-14T11:18:44.998Z,25.85
2018-12-14T11:19:54.275Z,25.85
2018-12-14T11:21:03.129Z,25.85
2018-12-14T11:22:12.239Z,25.85
2018-12-14T11:23:21.621Z,25.85
2018-12-14T11:24:31.476Z,25.85
2018-12-14T11:25:41.350Z,25.85
2018-12-14T11:26:50.383Z,25.85
2018-12-14T11:28:00.361Z,25.95
2018-12-14T11:29:09.638Z,25.85
2018-12-14T11:30:19.579Z,25.85
2018-12-14T11:31:28.950Z,25.85
2018-12-14T11:32:38.551Z,25.85
2018-12-14T11:33:48.344Z,25.85
2018-12-14T11:34:57.652Z,26.04
2018-12-14T11:36:06.711Z,26.04
2018-12-14T11:37:16.109Z,25.95
2018-12-14T11:38:25.671Z,26.33
2018-12-14T11:39:35.031Z,26.33
2018-12-14T11:40:44.482Z,26.33
2018-12-14T11:41:53.834Z,26.23
2018-12-14T11:43:03.691Z,26.23
2018-12-14T11:44:13.441Z,26.33
2018-12-14T11:45:28.212Z,26.43
2018-12-14T11:46:37.560Z,26.33
2018-12-14T11:47:47.197Z,26.33
2018-12-14T11:48:56.552Z,26.43
2018-12-14T11:50:05.992Z,26.43
2018-12-14T11:51:15.316Z,26.32
2018-12-14T11:52:24.871Z,26.7
2018-12-14T11:53:34.251Z,26.51
2018-12-14T11:54:43.355Z,26.8
2018-12-14T11:55:52.407Z,26.42
2018-12-14T11:57:02.418Z,26.42
2018-12-14T11:58:11.739Z,26.42
2018-12-14T11:59:20.866Z,26.61
2018-12-14T12:00:30.541Z,26.61
2018-12-14T12:01:39.804Z,26.61
2018-12-14T12:02:49.172Z,26.42
2018-12-14T12:03:58.575Z,26.61
2018-12-14T12:05:08.022Z,26.51
2018-12-14T12:06:17.589Z,26.61
2018-12-14T12:07:27.226Z,26.61
2018-12-14T12:08:36.797Z,26.61
2018-12-14T12:09:46.704Z,26.8
2018-12-14T12:10:56.370Z,26.8
2018-12-14T12:12:05.993Z,26.8
2018-12-14T12:13:15.562Z,27
2018-12-14T12:14:29.524Z,26.8
2018-12-14T12:15:38.849Z,26.8
2018-12-14T12:16:48.014Z,26.9
2018-12-14T12:17:57.851Z,26.9
2018-12-14T12:19:07.786Z,26.9
2018-12-14T12:20:17.450Z,27.09
2018-12-14T12:21:27.259Z,27.09
2018-12-14T12:22:36.508Z,27
2018-12-14T12:23:46.008Z,27.38
2018-12-14T12:25:00.071Z,27
2018-12-14T12:26:09.287Z,27
2018-12-14T12:27:18.810Z,26.9
2018-12-14T12:28:28.518Z,26.8
2018-12-14T12:29:38.349Z,26.8
2018-12-14T12:30:48.032Z,27
2018-12-14T12:31:57.926Z,27.09
2018-12-14T12:33:07.636Z,26.9
2018-12-14T12:34:17.060Z,27.09
2018-12-14T12:35:26.180Z,27.09
2018-12-14T12:36:35.452Z,27
2018-12-14T12:37:44.781Z,27
2018-12-14T12:38:53.596Z,27.09
2018-12-14T12:40:02.776Z,27.09
2018-12-14T12:41:13.228Z,27
2018-12-14T12:42:23.124Z,27
2018-12-14T12:43:32.026Z,27.19
2018-12-14T12:44:41.521Z,27.19
2018-12-14T12:45:51.202Z,27.28
2018-12-14T12:47:00.407Z,27.38
2018-12-14T12:48:09.725Z,27.09
2018-12-14T12:49:19.529Z,27.19
2018-12-14T12:50:30.256Z,27.27
2018-12-14T12:51:39.878Z,27.38
2018-12-14T12:52:49.181Z,27.27
2018-12-14T12:53:58.654Z,27.27
2018-12-14T12:55:07.737Z,27.27
2018-12-14T12:56:16.794Z,27.17
2018-12-14T12:57:26.498Z,27.48
2018-12-14T12:58:35.644Z,27.37
2018-12-14T12:59:45.300Z,27.38
2018-12-14T13:00:54.707Z,27.46
2018-12-14T13:02:04.308Z,27.28
2018-12-14T13:03:13.838Z,27.28
2018-12-14T13:04:23.369Z,27
2018-12-14T13:05:37.092Z,27
2018-12-14T13:06:46.463Z,27
2018-12-14T13:07:55.864Z,27.19
2018-12-14T13:09:05.028Z,26.8
2018-12-14T13:10:14.702Z,27
2018-12-14T13:11:24.821Z,26.61
2018-12-14T13:12:34.934Z,26.51
2018-12-14T13:13:45.082Z,26.53
2018-12-14T13:14:54.619Z,26.62
2018-12-14T13:16:03.993Z,26.53
2018-12-14T13:17:14.032Z,26.53
2018-12-14T13:18:23.233Z,26.43
2018-12-14T13:19:33.223Z,26.62
2018-12-14T13:20:42.730Z,26.62
2018-12-14T13:21:52.057Z,26.72
2018-12-14T13:23:02.297Z,26.53
2018-12-14T13:24:11.755Z,26.62
2018-12-14T13:25:21.085Z,26.62
2018-12-14T13:26:31.337Z,26.72
2018-12-14T13:27:41.079Z,26.72
2018-12-14T13:28:51.800Z,26.72
2018-12-14T13:30:01.565Z,26.72
2018-12-14T13:31:11.169Z,26.62
2018-12-14T13:32:20.389Z,26.72
2018-12-14T13:33:30.492Z,26.72
2018-12-14T13:34:40.338Z,26.33
2018-12-14T13:35:49.733Z,26.43
2018-12-14T13:36:58.844Z,26.91
2018-12-14T13:38:08.277Z,26.91
2018-12-14T13:39:20.225Z,26.72
2018-12-14T13:40:29.861Z,26.62
2018-12-14T13:41:40.004Z,26.53
2018-12-14T13:42:49.549Z,26.53
2018-12-14T13:43:59.496Z,26.62
2018-12-14T13:45:08.643Z,26.53
2018-12-14T13:46:17.994Z,26.53
2018-12-14T13:47:27.767Z,26.62
2018-12-14T13:48:37.255Z,26.91
2018-12-14T13:49:46.418Z,26.81
2018-12-14T13:50:55.533Z,27.11
2018-12-14T13:52:05.242Z,26.81
2018-12-14T13:53:14.855Z,27.01
2018-12-14T13:54:24.160Z,27.11
2018-12-14T13:55:33.201Z,26.91
2018-12-14T13:56:42.245Z,26.91
2018-12-14T13:57:51.655Z,27.01
2018-12-14T13:59:00.985Z,27.11
2018-12-14T14:00:10.417Z,27.11
2018-12-14T14:01:20.111Z,27.11
2018-12-14T14:02:29.553Z,27.01
2018-12-14T14:03:39.129Z,27.11
2018-12-14T14:04:48.085Z,27.39
2018-12-14T14:05:58.022Z,27.19
2018-12-14T14:07:07.627Z,27
2018-12-14T14:08:16.492Z,27.19
2018-12-14T14:09:25.996Z,27.39
2018-12-14T14:10:34.988Z,27.09
2018-12-14T14:11:44.448Z,27.38
2018-12-14T14:12:54.206Z,27.28
2018-12-14T14:14:03.708Z,27.38
2018-12-14T14:15:12.708Z,27.38
2018-12-14T14:16:27.902Z,27.38
2018-12-14T14:17:37.423Z,27.38
2018-12-14T14:18:46.892Z,27.19
2018-12-14T14:19:56.187Z,27.19
2018-12-14T14:21:05.499Z,27.28
2018-12-14T14:22:15.356Z,27.48
2018-12-14T14:23:24.638Z,27.38
2018-12-14T14:24:34.258Z,27.38
2018-12-14T14:25:43.907Z,27.38
2018-12-14T14:26:52.940Z,27.38
2018-12-14T14:28:02.046Z,27.28
2018-12-14T14:29:13.417Z,27.57
2018-12-14T14:30:22.489Z,27.48
2018-12-14T14:31:31.833Z,27.76
2018-12-14T14:32:41.234Z,27.57
2018-12-14T14:33:51.196Z,27.48
2018-12-14T14:35:00.885Z,27.48
2018-12-14T14:36:10.490Z,27.48
2018-12-14T14:37:19.948Z,27.57
2018-12-14T14:38:29.147Z,27.67
2018-12-14T14:39:38.656Z,27.67
2018-12-14T14:40:47.951Z,27.48
2018-12-14T14:41:57.126Z,27.48
2018-12-14T14:43:06.644Z,27.38
2018-12-14T14:44:15.869Z,27.48
2018-12-14T14:45:26.075Z,27.48
2018-12-14T14:46:35.649Z,27.67
2018-12-14T14:47:45.357Z,27.67
2018-12-14T14:48:54.774Z,27.57
2018-12-14T14:50:04.543Z,27.76
2018-12-14T14:51:14.179Z,27.57
2018-12-14T14:52:24.068Z,27.76
2018-12-14T14:53:33.476Z,27.76
2018-12-14T14:54:42.862Z,27.67
2018-12-14T14:55:52.502Z,27.67
2018-12-14T14:57:01.323Z,27.76
2018-12-14T14:58:11.209Z,27.86
2018-12-14T14:59:21.275Z,27.76